Time;durP1;ratioP1;P1;durP2;ratioP2;P2;SDS_P1;SDS_P2;PMS_P1;PMS_P2;Temp;Humidity;BMP_temperature;BMP_pressure;BME280_temperature;BME280_humidity;BME280_pressure;Samples;Min_cycle;Max_cycle;Signal;HPM_P1;HPM_P2
2022/12/23 00:00:17;;;;;;;;;1.00;0.00;;;;;15.85;95.97;58973.41;5017791;28;45481;-83
2022/12/23 00:02:43;;;;;;;;;0.00;0.00;;;;;15.23;96.26;60152.44;5019279;28;45272;-82
2022/12/23 00:05:09;;;;;;;;;1.00;0.00;;;;;15.24;95.81;60466.63;5018267;28;45637;-83
2022/12/23 00:07:35;;;;;;;;;0.00;0.00;;;;;15.85;95.90;59752.84;5013620;28;45387;-82
2022/12/23 00:10:00;;;;;;;;;0.00;0.00;;;;;15.87;96.40;59810.25;5016291;28;45664;-83
2022/12/23 00:15:11;;;;;;;;;1.00;0.00;;;;;15.86;96.37;60530.81;5002840;28;45430;-84
2022/12/23 00:17:41;;;;;;;;;1.00;0.00;;;;;15.19;96.26;60031.84;5018489;28;45462;-83
2022/12/23 00:20:07;;;;;;;;;0.00;0.00;;;;;15.55;96.26;60522.66;5017902;28;45462;-83
2022/12/23 00:25:17;;;;;;;;;0.67;0.00;;;;;15.71;96.61;61454.22;5010513;28;45525;-83
2022/12/23 00:28:00;;;;;;;;;2.00;1.00;;;;;15.82;96.57;61875.88;5015964;28;45360;-83
2022/12/23 00:30:26;;;;;;;;;0.00;0.00;;;;;15.45;96.22;61416.34;5015630;28;45631;-83
2022/12/23 00:32:51;;;;;;;;;0.00;0.00;;;;;15.55;96.75;62981.47;5018252;28;45497;-83
2022/12/23 00:35:17;;;;;;;;;2.00;0.00;;;;;14.37;96.95;64340.34;5016374;28;45641;-82
2022/12/23 00:37:42;;;;;;;;;0.00;0.00;;;;;15.74;97.18;64881.09;5011231;28;45517;-83
2022/12/23 00:42:55;;;;;;;;;0.00;0.00;;;;;15.56;97.89;66081.63;5018300;28;45352;-84
2022/12/23 00:45:21;;;;;;;;;0.67;0.00;;;;;15.73;97.75;66816.69;4999115;28;45552;-84
2022/12/23 00:50:34;;;;;;;;;0.00;0.00;;;;;15.50;97.96;66779.97;5007273;28;45798;-84
2022/12/23 00:52:59;;;;;;;;;0.00;0.00;;;;;15.70;98.33;67256.13;5001363;28;45421;-84
2022/12/23 00:55:24;;;;;;;;;0.00;0.00;;;;;15.27;98.59;67753.19;5018678;28;45962;-85
2022/12/23 00:57:50;;;;;;;;;0.00;0.00;;;;;14.77;98.87;68044.94;5001117;28;45394;-84
2022/12/23 01:00:16;;;;;;;;;0.00;0.00;;;;;14.78;98.83;69070.28;5000372;28;47473;-85
2022/12/23 01:05:35;;;;;;;;;0.00;0.00;;;;;15.71;98.36;68032.25;5014578;28;45677;-85
2022/12/23 01:08:04;;;;;;;;;0.67;0.67;;;;;15.62;98.73;68653.91;5008344;28;45520;-85
2022/12/23 01:10:29;;;;;;;;;0.00;0.00;;;;;14.74;98.49;68911.13;5005609;28;45566;-84
2022/12/23 01:12:54;;;;;;;;;0.00;0.00;;;;;14.87;98.68;69085.78;5009798;28;45502;-84
2022/12/23 01:15:20;;;;;;;;;0.00;0.00;;;;;15.68;99.19;70009.47;5017940;28;45312;-84
2022/12/23 01:17:45;;;;;;;;;0.00;0.00;;;;;15.22;98.88;70240.13;4990223;28;45336;-84
2022/12/23 01:20:11;;;;;;;;;0.33;0.00;;;;;15.67;99.53;70771.56;5017703;28;45677;-84
2022/12/23 01:22:37;;;;;;;;;0.00;0.00;;;;;15.52;99.29;70753.84;5010925;28;45637;-84
2022/12/23 01:25:02;;;;;;;;;0.00;0.00;;;;;14.60;99.33;70388.25;5006792;28;45474;-83
2022/12/23 01:27:28;;;;;;;;;0.00;0.00;;;;;15.67;99.62;70488.88;5018239;28;45474;-83
2022/12/23 01:29:53;;;;;;;;;0.00;0.00;;;;;15.17;99.77;71138.06;5004976;28;46404;-83
2022/12/23 01:32:19;;;;;;;;;0.00;0.00;;;;;15.68;100.00;71372.31;5017006;28;45495;-84
2022/12/23 01:34:44;;;;;;;;;0.00;0.00;;;;;14.50;99.77;71318.44;4999848;28;45269;-83
2022/12/23 01:37:09;;;;;;;;;0.00;0.00;;;;;15.69;99.58;70656.69;4997711;28;45412;-84
2022/12/23 01:39:35;;;;;;;;;0.00;0.00;;;;;14.78;99.42;71099.94;5013175;28;46958;-83
2022/12/23 01:44:56;;;;;;;;;0.00;0.00;;;;;15.71;100.00;70704.47;5001536;28;45444;-84
2022/12/23 01:47:32;;;;;;;;;0.00;0.00;;;;;15.70;99.56;70190.56;5001593;28;45637;-83
2022/12/23 01:50:31;;;;;;;;;0.00;0.00;;;;;15.68;99.46;70338.06;5006079;28;45509;-83
2022/12/23 01:53:16;;;;;;;;;0.00;0.00;;;;;15.59;99.79;71711.25;4998233;28;45317;-84
2022/12/23 01:55:52;;;;;;;;;0.00;0.00;;;;;15.54;100.00;72033.13;5004880;28;45372;-84
2022/12/23 01:58:45;;;;;;;;;0.00;0.00;;;;;15.69;100.00;72582.75;5003905;28;45474;-83
2022/12/23 02:04:03;;;;;;;;;0.00;0.00;;;;;15.30;100.00;72873.81;5017533;28;45387;-83
2022/12/23 02:09:20;;;;;;;;;0.00;0.00;;;;;15.65;100.00;73450.31;5016241;28;45585;-84
2022/12/23 02:11:52;;;;;;;;;0.00;0.00;;;;;15.67;100.00;73799.19;5015840;28;45651;-83
2022/12/23 02:17:13;;;;;;;;;0.67;0.00;;;;;15.61;100.00;72300.59;5017895;28;45352;-84
2022/12/23 02:19:57;;;;;;;;;0.00;0.00;;;;;15.70;100.00;71769.59;5016688;28;45873;-85
2022/12/23 02:22:51;;;;;;;;;0.00;0.00;;;;;15.69;100.00;71253.53;5010873;28;45711;-85
2022/12/23 02:25:39;;;;;;;;;0.00;0.00;;;;;15.70;100.00;71394.09;5017647;28;45328;-84
2022/12/23 02:28:23;;;;;;;;;0.00;0.00;;;;;15.70;100.00;71540.81;4935500;28;45507;-84
2022/12/23 02:31:11;;;;;;;;;1.00;0.00;;;;;15.63;100.00;70545.34;4931677;28;45481;-85
2022/12/23 02:33:46;;;;;;;;;2.00;0.00;;;;;15.57;99.85;69378.28;4929864;28;46559;-85
2022/12/23 02:36:22;;;;;;;;;0.00;0.00;;;;;15.39;99.73;69235.31;4904470;28;45554;-85
2022/12/23 02:39:02;;;;;;;;;0.00;0.00;;;;;15.73;99.94;69418.84;4917651;28;45490;-84
2022/12/23 02:41:43;;;;;;;;;0.00;0.00;;;;;15.74;99.24;67894.53;4931936;28;45693;-83
2022/12/23 02:44:25;;;;;;;;;0.00;0.00;;;;;15.63;99.10;66942.13;4936392;28;46141;-84
2022/12/23 02:46:57;;;;;;;;;0.67;0.00;;;;;15.73;99.22;67371.56;4909339;28;45548;-86
2022/12/23 02:49:38;;;;;;;;;0.00;0.00;;;;;15.21;99.06;66803.50;4929796;28;45444;-86
2022/12/23 02:52:11;;;;;;;;;1.00;0.00;;;;;15.13;98.92;65328.28;4917679;28;45377;-86
2022/12/23 02:54:45;;;;;;;;;2.00;0.00;;;;;14.10;98.57;65309.56;4917052;28;46595;-87
2022/12/23 02:57:16;;;;;;;;;0.00;0.00;;;;;14.67;98.59;64984.84;4917211;28;45545;-86
2022/12/23 02:59:47;;;;;;;;;0.00;0.00;;;;;15.75;98.44;63484.16;4929505;28;45604;-86
2022/12/23 03:02:14;;;;;;;;;0.00;0.00;;;;;15.74;97.94;62645.03;4932387;28;45620;-86
2022/12/23 03:04:40;;;;;;;;;0.00;0.00;;;;;14.88;97.94;62965.19;4941771;28;47230;-86
2022/12/23 03:07:19;;;;;;;;;1.00;0.00;;;;;15.71;97.50;61975.81;4998959;28;45503;-86
2022/12/23 03:09:57;;;;;;;;;0.00;0.00;;;;;15.69;97.69;61436.66;5013250;28;45367;-85
2022/12/23 03:12:50;;;;;;;;;0.00;0.00;;;;;15.70;97.89;62067.88;5010616;28;45491;-84
2022/12/23 03:15:27;;;;;;;;;0.00;0.00;;;;;15.69;97.59;62354.22;5010825;28;46110;-84
2022/12/23 03:18:22;;;;;;;;;1.33;0.00;;;;;15.68;97.79;62569.25;5008266;28;45481;-85
2022/12/23 03:20:50;;;;;;;;;0.00;0.00;;;;;15.70;97.49;61862.97;5014209;28;45483;-84
2022/12/23 03:23:30;;;;;;;;;0.67;0.67;;;;;15.69;97.29;61029.03;5013688;28;45296;-84
2022/12/23 03:26:15;;;;;;;;;2.00;0.00;;;;;15.43;96.81;59627.81;5012785;28;45390;-84
2022/12/23 03:28:52;;;;;;;;;0.00;0.00;;;;;14.92;96.82;59887.25;5020693;28;45415;-84
2022/12/23 03:31:25;;;;;;;;;2.00;0.00;;;;;15.67;97.15;61104.06;4992243;28;45583;-85
2022/12/23 03:33:58;;;;;;;;;2.00;0.00;;;;;15.54;97.43;60404.56;5008324;28;45329;-84
2022/12/23 03:36:29;;;;;;;;;1.00;0.00;;;;;15.28;96.98;59726.53;5014962;28;45579;-84
2022/12/23 03:38:56;;;;;;;;;0.00;0.00;;;;;14.83;96.68;60637.09;5014645;28;45370;-85
2022/12/23 03:41:40;;;;;;;;;0.00;0.00;;;;;15.22;96.95;60241.22;5012938;28;45500;-84
2022/12/23 03:44:12;;;;;;;;;1.00;1.00;;;;;15.38;97.09;59803.38;5015322;28;45301;-84
2022/12/23 03:46:49;;;;;;;;;0.00;0.00;;;;;14.31;96.66;59283.88;4997630;28;46606;-85
2022/12/23 03:49:21;;;;;;;;;0.00;0.00;;;;;15.01;96.76;59667.63;5012078;28;45431;-86
2022/12/23 03:51:54;;;;;;;;;2.00;0.33;;;;;15.64;96.70;60295.38;5002911;28;45555;-85
2022/12/23 03:54:30;;;;;;;;;3.33;2.00;;;;;15.03;96.60;62856.06;5013068;28;45401;-85
2022/12/23 03:57:01;;;;;;;;;0.00;0.00;;;;;15.13;96.52;60240.31;5025491;28;47249;-85
2022/12/23 03:59:35;;;;;;;;;0.00;0.00;;;;;15.31;96.50;59618.53;5010820;28;45690;-85
2022/12/23 04:02:18;;;;;;;;;0.00;0.00;;;;;15.27;96.81;59914.72;5025059;28;45589;-86
2022/12/23 04:05:15;;;;;;;;;1.00;1.00;;;;;15.58;96.78;58930.75;4997790;28;45453;-86
2022/12/23 04:08:03;;;;;;;;;1.00;0.00;;;;;15.40;96.74;59590.66;4989723;28;46361;-85
2022/12/23 04:10:29;;;;;;;;;0.00;0.00;;;;;15.52;96.81;59905.16;5015723;28;45502;-86
2022/12/23 04:12:55;;;;;;;;;0.00;0.00;;;;;14.10;96.44;59825.13;5016100;28;45427;-87
2022/12/23 04:15:23;;;;;;;;;0.67;0.00;;;;;14.64;96.22;59728.50;5015781;28;45820;-86
2022/12/23 04:17:50;;;;;;;;;1.67;0.00;;;;;14.47;96.38;59695.41;5014070;28;46721;-86
2022/12/23 04:20:15;;;;;;;;;0.00;0.00;;;;;14.40;96.85;59793.75;5008342;28;45517;-84
2022/12/23 04:22:42;;;;;;;;;0.00;0.00;;;;;15.05;96.71;59608.00;5034252;28;45470;-84
2022/12/23 04:25:09;;;;;;;;;0.00;0.00;;;;;15.18;96.89;60060.00;5019102;28;45578;-86
2022/12/23 04:27:34;;;;;;;;;1.00;0.00;;;;;14.48;96.63;59590.25;5014111;28;46578;-86
2022/12/23 04:29:59;;;;;;;;;0.00;0.00;;;;;15.43;96.60;59710.22;4994686;28;45829;-86
2022/12/23 04:32:25;;;;;;;;;0.00;0.00;;;;;15.50;96.48;59937.66;4991344;28;45609;-86
2022/12/23 04:34:51;;;;;;;;;0.00;0.00;;;;;15.14;96.86;59728.44;5021735;28;45534;-85
2022/12/23 04:37:16;;;;;;;;;0.00;0.00;;;;;15.49;96.61;60117.94;5007216;28;45433;-86
2022/12/23 04:39:41;;;;;;;;;0.00;0.00;;;;;14.54;96.57;60270.34;5017694;28;45690;-87
2022/12/23 04:42:07;;;;;;;;;2.00;1.00;;;;;14.12;96.46;61273.44;5018893;28;45379;-86
2022/12/23 04:44:32;;;;;;;;;0.00;0.00;;;;;14.61;96.76;61437.78;5001598;28;45597;-86
2022/12/23 04:46:57;;;;;;;;;3.00;0.00;;;;;14.75;96.96;62651.19;5018737;28;46322;-86
2022/12/23 04:49:23;;;;;;;;;0.00;0.00;;;;;14.75;97.04;62797.91;5017102;28;45672;-86
2022/12/23 04:51:48;;;;;;;;;0.00;0.00;;;;;14.73;97.62;62896.16;5000953;28;45672;-87
2022/12/23 04:54:14;;;;;;;;;2.00;1.00;;;;;15.06;97.35;62785.41;5014205;28;45655;-87
2022/12/23 04:56:39;;;;;;;;;0.00;0.00;;;;;15.41;97.25;63062.50;4981200;28;48082;-86
2022/12/23 04:59:05;;;;;;;;;3.67;1.00;;;;;14.57;96.89;62448.81;5007712;28;45352;-86
2022/12/23 05:01:30;;;;;;;;;0.00;0.00;;;;;15.15;96.79;62266.03;5018651;28;45839;-87
2022/12/23 05:03:56;;;;;;;;;0.00;0.00;;;;;14.11;96.58;62036.28;5016857;28;45359;-86
2022/12/23 05:06:21;;;;;;;;;0.67;0.67;;;;;15.59;97.37;62655.84;5000377;28;47604;-87
2022/12/23 05:08:47;;;;;;;;;0.00;0.00;;;;;15.60;97.20;61845.31;5018873;28;45296;-87
2022/12/23 05:11:12;;;;;;;;;0.00;0.00;;;;;15.52;96.92;61831.41;5026445;28;45354;-86
2022/12/23 05:13:38;;;;;;;;;1.33;0.00;;;;;14.73;97.10;61997.94;5038842;28;45495;-86
2022/12/23 05:16:03;;;;;;;;;1.00;1.00;;;;;15.24;97.01;62732.69;5038339;28;45450;-86
2022/12/23 05:18:29;;;;;;;;;2.67;0.00;;;;;15.68;96.91;62507.50;5029608;28;45722;-87
2022/12/23 05:20:54;;;;;;;;;2.00;0.00;;;;;15.31;97.15;62676.47;5000576;28;45493;-86
2022/12/23 05:23:19;;;;;;;;;0.33;0.00;;;;;14.98;96.75;61705.34;5002204;28;45473;-86
2022/12/23 05:25:51;;;;;;;;;0.00;0.00;;;;;15.70;97.17;62121.66;5010871;28;47177;-86
2022/12/23 05:28:17;;;;;;;;;0.00;0.00;;;;;14.90;96.94;61654.25;5032497;28;45295;-86
2022/12/23 05:30:42;;;;;;;;;1.00;1.00;;;;;15.35;97.19;61374.31;5000485;28;45273;-87
2022/12/23 05:33:08;;;;;;;;;0.33;0.00;;;;;15.41;96.99;62655.44;5000757;28;45450;-86
2022/12/23 05:35:33;;;;;;;;;0.00;0.00;;;;;15.73;97.52;63362.72;4999656;28;47236;-87
2022/12/23 05:37:58;;;;;;;;;0.00;0.00;;;;;15.09;97.38;64687.84;5017808;28;45380;-87
2022/12/23 05:40:24;;;;;;;;;1.33;0.00;;;;;14.67;98.08;64670.53;5015224;28;45459;-86
2022/12/23 05:42:49;;;;;;;;;0.00;0.00;;;;;15.43;97.88;65725.34;5018578;28;45412;-87
2022/12/23 05:45:14;;;;;;;;;0.00;0.00;;;;;15.15;97.84;64896.25;4998887;28;48704;-87
2022/12/23 05:47:40;;;;;;;;;2.00;0.00;;;;;15.74;98.31;64823.06;4980905;28;45576;-85
2022/12/23 05:50:06;;;;;;;;;0.33;0.00;;;;;15.73;98.10;64728.72;5014335;28;45722;-85
2022/12/23 05:52:31;;;;;;;;;1.00;0.00;;;;;14.64;97.52;65446.78;5015172;28;45499;-85
2022/12/23 05:54:57;;;;;;;;;0.33;0.00;;;;;15.76;98.32;65994.19;4997175;28;46233;-87
2022/12/23 05:57:22;;;;;;;;;0.00;0.00;;;;;13.83;97.64;66600.13;5016764;28;45466;-86
2022/12/23 05:59:47;;;;;;;;;0.00;0.00;;;;;15.17;98.47;66378.84;5017917;28;45463;-84
2022/12/23 06:02:13;;;;;;;;;0.33;0.00;;;;;15.74;98.79;66799.78;5018475;28;45424;-85
2022/12/23 06:04:38;;;;;;;;;0.00;0.00;;;;;15.70;98.87;67428.75;5017534;28;45565;-85
2022/12/23 06:07:03;;;;;;;;;0.00;0.00;;;;;15.63;98.96;68124.69;5017171;28;45439;-85
2022/12/23 06:09:29;;;;;;;;;1.00;0.00;;;;;15.67;99.19;68963.72;5017803;28;45311;-85
2022/12/23 06:11:54;;;;;;;;;2.00;0.00;;;;;14.88;98.92;68358.09;5018105;28;45300;-86
2022/12/23 06:14:20;;;;;;;;;0.00;0.00;;;;;15.53;99.05;69154.94;5017228;28;45459;-85
2022/12/23 06:16:45;;;;;;;;;0.00;0.00;;;;;14.85;99.22;68868.34;5016212;28;45527;-86
2022/12/23 06:19:10;;;;;;;;;0.00;0.00;;;;;14.93;98.99;68957.16;4996356;28;45352;-86
2022/12/23 06:21:36;;;;;;;;;0.00;0.00;;;;;15.72;99.58;69227.75;5009539;28;45405;-85
2022/12/23 06:24:01;;;;;;;;;0.00;0.00;;;;;15.58;98.87;69318.19;5000699;28;45546;-84
2022/12/23 06:26:26;;;;;;;;;1.00;1.00;;;;;15.09;99.53;69796.06;5016901;28;45411;-85
2022/12/23 06:28:52;;;;;;;;;1.00;1.00;;;;;14.74;99.20;69062.84;5016206;28;45380;-84
2022/12/23 06:31:17;;;;;;;;;2.00;1.00;;;;;15.05;98.91;69187.19;5016271;28;45795;-84
2022/12/23 06:33:43;;;;;;;;;1.00;1.00;;;;;15.07;99.38;68185.59;5020441;28;46217;-85
2022/12/23 06:36:08;;;;;;;;;1.00;0.00;;;;;15.46;99.33;68674.88;5015327;28;45366;-84
2022/12/23 06:38:33;;;;;;;;;0.00;0.00;;;;;15.46;98.91;67625.69;5032604;28;45556;-84
2022/12/23 06:40:59;;;;;;;;;0.00;0.00;;;;;15.83;99.14;67332.00;5024686;28;45671;-86
2022/12/23 06:43:24;;;;;;;;;0.00;0.00;;;;;14.69;99.25;67723.59;5016001;28;45570;-86
2022/12/23 06:45:50;;;;;;;;;0.00;0.00;;;;;15.36;99.08;68109.44;5014546;28;45499;-87
2022/12/23 06:48:16;;;;;;;;;0.00;0.00;;;;;15.07;99.28;67487.44;5007217;28;45523;-87
2022/12/23 06:50:42;;;;;;;;;0.00;0.00;;;;;15.86;99.07;66906.38;5026337;28;46156;-87
2022/12/23 06:53:07;;;;;;;;;0.00;0.00;;;;;15.88;99.23;67446.53;5022413;28;45420;-86
2022/12/23 06:55:33;;;;;;;;;0.00;0.00;;;;;14.66;98.61;67092.78;5000358;28;45415;-86
2022/12/23 06:57:58;;;;;;;;;0.00;0.00;;;;;15.57;98.77;67430.75;5032383;28;45665;-86
2022/12/23 07:00:23;;;;;;;;;1.00;0.00;;;;;15.87;98.96;66904.28;5019475;28;45451;-86
2022/12/23 07:02:49;;;;;;;;;2.00;0.00;;;;;15.88;99.16;67022.72;5015723;28;45480;-87
2022/12/23 07:05:14;;;;;;;;;0.00;0.00;;;;;15.80;99.09;66784.81;5016351;28;45544;-86
2022/12/23 07:07:39;;;;;;;;;0.00;0.00;;;;;15.80;99.05;66756.09;5005995;28;45359;-86
2022/12/23 07:10:06;;;;;;;;;0.00;0.00;;;;;15.67;98.66;66330.19;5005427;28;45400;-86
2022/12/23 07:12:32;;;;;;;;;0.00;0.00;;;;;15.56;99.25;66587.13;5015413;28;45560;-86
2022/12/23 07:14:57;;;;;;;;;0.00;0.00;;;;;15.79;98.44;65981.63;5035112;28;45278;-86
2022/12/23 07:17:22;;;;;;;;;0.00;0.00;;;;;15.67;98.28;64927.03;5035900;28;45351;-87
2022/12/23 07:19:48;;;;;;;;;0.00;0.00;;;;;15.48;98.56;65342.28;5009957;28;45314;-86
2022/12/23 07:22:13;;;;;;;;;0.00;0.00;;;;;14.86;98.93;65731.88;5002102;28;46940;-86
2022/12/23 07:24:38;;;;;;;;;0.00;0.00;;;;;15.28;98.90;65546.44;5016515;28;45265;-87
2022/12/23 07:27:04;;;;;;;;;0.00;0.00;;;;;15.30;98.58;65431.59;5031614;28;45482;-86
2022/12/23 07:29:29;;;;;;;;;0.00;0.00;;;;;15.66;98.14;64810.81;5002707;28;45558;-86
2022/12/23 07:31:54;;;;;;;;;0.67;0.00;;;;;15.76;98.44;64715.56;5024293;28;46430;-86
2022/12/23 07:34:20;;;;;;;;;0.00;0.00;;;;;15.49;98.43;64542.59;5016916;28;45470;-86
2022/12/23 07:36:45;;;;;;;;;0.00;0.00;;;;;15.93;98.16;64273.19;5020864;28;45438;-88
2022/12/23 07:39:11;;;;;;;;;0.00;0.00;;;;;14.93;97.81;64419.88;5005448;28;45442;-87
2022/12/23 07:41:36;;;;;;;;;0.00;0.00;;;;;15.92;98.35;64491.09;5015634;28;46102;-88
2022/12/23 07:44:01;;;;;;;;;0.00;0.00;;;;;15.96;97.93;63698.50;5016411;28;45459;-88
2022/12/23 07:46:27;;;;;;;;;0.00;0.00;;;;;15.76;97.97;63378.78;4993382;28;45308;-88
2022/12/23 07:48:52;;;;;;;;;1.00;0.00;;;;;15.25;97.94;63350.91;5009826;28;45397;-88
2022/12/23 07:51:17;;;;;;;;;0.00;0.00;;;;;15.05;97.74;62927.91;4997701;28;47327;-87
2022/12/23 07:53:43;;;;;;;;;0.00;0.00;;;;;16.13;97.38;62364.06;5015957;28;45328;-87
2022/12/23 07:56:08;;;;;;;;;0.00;0.00;;;;;15.99;97.79;62849.53;5015380;28;45388;-88
2022/12/23 07:58:33;;;;;;;;;0.00;0.00;;;;;16.15;97.55;61937.44;5016747;28;45422;-87
2022/12/23 08:01:01;;;;;;;;;0.00;0.00;;;;;16.14;97.51;61376.63;5018041;28;46338;-87
2022/12/23 08:03:26;;;;;;;;;0.00;0.00;;;;;15.75;97.08;61302.03;4978513;28;45708;-86
2022/12/23 08:06:03;;;;;;;;;0.67;0.00;;;;;15.46;97.58;62353.81;5002164;28;45391;-87
2022/12/23 08:08:29;;;;;;;;;0.00;0.00;;;;;16.15;97.82;61665.25;5017258;28;45377;-86
2022/12/23 08:10:59;;;;;;;;;0.00;0.00;;;;;16.16;97.47;60548.03;5018638;28;46181;-86
2022/12/23 08:13:25;;;;;;;;;0.00;0.00;;;;;15.54;97.43;61195.06;5018173;28;45395;-86
2022/12/23 08:15:56;;;;;;;;;0.00;0.00;;;;;16.16;97.21;61685.50;5012738;28;45477;-87
2022/12/23 08:18:21;;;;;;;;;0.00;0.00;;;;;16.16;97.87;61893.25;5022299;28;45309;-86
2022/12/23 08:21:01;;;;;;;;;0.00;0.00;;;;;15.64;97.67;61324.91;5019322;28;45923;-86
2022/12/23 08:23:28;;;;;;;;;0.00;0.00;;;;;15.27;96.71;60504.34;5036747;28;45390;-87
2022/12/23 08:26:01;;;;;;;;;0.00;0.00;;;;;15.75;97.10;60658.09;5028048;28;45822;-88
2022/12/23 08:28:27;;;;;;;;;0.00;0.00;;;;;16.14;97.46;61512.41;5027474;28;45423;-87
2022/12/23 08:30:53;;;;;;;;;0.00;0.00;;;;;15.63;97.42;62209.88;5006285;28;48051;-88
2022/12/23 08:33:18;;;;;;;;;1.00;0.00;;;;;16.09;97.18;61536.91;5023204;28;45470;-89
2022/12/23 08:35:43;;;;;;;;;0.00;0.00;;;;;15.14;97.51;61729.97;5017475;28;45428;-89
2022/12/23 08:38:09;;;;;;;;;0.00;0.00;;;;;14.83;97.29;61800.91;5015258;28;45645;-88
2022/12/23 08:40:34;;;;;;;;;0.67;0.00;;;;;16.23;97.39;62079.22;5012248;28;46181;-88
2022/12/23 08:42:59;;;;;;;;;0.00;0.00;;;;;16.25;97.38;61574.78;4998647;28;46000;-87
2022/12/23 08:45:25;;;;;;;;;0.00;0.00;;;;;15.55;97.47;62493.94;5014891;28;45395;-88
2022/12/23 08:47:51;;;;;;;;;0.00;0.00;;;;;15.73;97.50;63048.56;5020445;28;45473;-88
2022/12/23 08:50:16;;;;;;;;;0.00;0.00;;;;;15.89;97.52;62077.19;5037362;28;46357;-87
2022/12/23 08:52:42;;;;;;;;;0.00;0.00;;;;;14.43;97.37;62555.78;5017642;28;45501;-87
2022/12/23 08:55:07;;;;;;;;;0.00;0.00;;;;;15.28;97.04;61651.38;5000449;28;45442;-87
2022/12/23 08:57:33;;;;;;;;;0.67;0.00;;;;;16.30;97.48;62525.81;5025990;28;45625;-86
2022/12/23 08:59:58;;;;;;;;;0.00;0.00;;;;;15.58;97.44;61728.22;5016647;28;46085;-87
2022/12/23 09:02:24;;;;;;;;;0.00;0.00;;;;;15.70;97.03;61522.34;5006575;28;45398;-87
2022/12/23 09:04:49;;;;;;;;;0.00;0.00;;;;;16.26;97.28;61546.53;5028305;28;45659;-87
2022/12/23 09:07:14;;;;;;;;;0.00;0.00;;;;;15.38;97.02;61069.00;5019975;28;45357;-87
2022/12/23 09:09:40;;;;;;;;;0.00;0.00;;;;;16.30;96.90;59572.28;5014751;28;45382;-86
2022/12/23 09:12:05;;;;;;;;;2.00;0.00;;;;;16.29;96.94;59539.28;5014018;28;45553;-86
2022/12/23 09:14:31;;;;;;;;;0.00;0.00;;;;;16.08;96.88;59900.78;4997976;28;45426;-87
2022/12/23 09:16:56;;;;;;;;;0.00;0.00;;;;;15.30;96.62;59741.91;5022600;28;45419;-86
2022/12/23 09:19:21;;;;;;;;;2.00;0.00;;;;;15.35;96.82;58907.16;4997730;28;46175;-85
2022/12/23 09:21:47;;;;;;;;;0.00;0.00;;;;;16.31;96.75;59445.00;5010758;28;45581;-85
2022/12/23 09:24:12;;;;;;;;;0.33;0.33;;;;;16.26;96.91;60364.16;5022234;28;45390;-86
2022/12/23 09:26:37;;;;;;;;;1.00;0.00;;;;;16.37;96.84;60351.75;5015768;28;45484;-87
2022/12/23 09:29:02;;;;;;;;;0.00;0.00;;;;;15.72;96.92;60133.00;5025984;28;45502;-86
2022/12/23 09:31:28;;;;;;;;;0.00;0.00;;;;;16.43;96.45;58068.22;5017751;28;45479;-86
2022/12/23 09:33:54;;;;;;;;;0.00;0.00;;;;;15.60;96.69;58001.81;5017453;28;45476;-86
2022/12/23 09:36:21;;;;;;;;;0.00;0.00;;;;;15.31;96.34;57627.63;5012073;28;45627;-86
2022/12/23 09:38:46;;;;;;;;;0.00;0.00;;;;;16.49;nan;57966.81;5015692;28;46136;-86
2022/12/23 09:41:17;;;;;;;;;0.00;0.00;;;;;16.50;96.13;56547.06;5011147;28;45552;-83
2022/12/23 09:44:11;;;;;;;;;0.00;0.00;;;;;16.51;95.86;56334.69;5022837;28;45475;-86
2022/12/23 09:46:46;;;;;;;;;1.00;0.00;;;;;15.83;96.20;56788.72;5005030;28;48234;-87
2022/12/23 09:49:15;;;;;;;;;0.00;0.00;;;;;15.85;95.77;56393.63;5015172;28;45324;-90
2022/12/23 09:51:40;;;;;;;;;0.00;0.00;;;;;16.22;96.24;56956.19;4986557;28;45686;-89
2022/12/23 09:54:17;;;;;;;;;0.00;0.00;;;;;16.17;95.63;56611.28;5014945;28;45499;-84
2022/12/23 09:56:51;;;;;;;;;0.00;0.00;;;;;16.53;95.76;55940.16;5015438;28;45620;-84
2022/12/23 09:59:41;;;;;;;;;0.00;0.00;;;;;16.53;95.41;55328.72;5010730;28;47289;-85
2022/12/23 10:02:25;;;;;;;;;1.00;0.00;;;;;16.31;96.00;55387.75;5015927;28;45620;-84
2022/12/23 10:04:56;;;;;;;;;1.00;0.00;;;;;16.58;95.36;54974.38;5012151;28;45487;-84
2022/12/23 10:07:28;;;;;;;;;0.00;0.00;;;;;16.41;95.13;54633.59;4994946;28;45530;-84
2022/12/23 10:09:56;;;;;;;;;0.00;0.00;;;;;15.74;95.03;54717.75;5007695;28;46204;-86
2022/12/23 10:12:28;;;;;;;;;0.00;0.00;;;;;16.63;95.41;54749.91;5016557;28;46717;-84
2022/12/23 10:14:58;;;;;;;;;0.00;0.00;;;;;16.67;95.57;54229.63;5015047;28;45537;-83
2022/12/23 10:17:33;;;;;;;;;0.00;0.00;;;;;16.35;95.07;52564.97;5014373;28;45472;-85
2022/12/23 10:20:02;;;;;;;;;0.00;0.00;;;;;16.68;94.70;52084.31;5009637;28;46077;-84
2022/12/23 10:22:37;;;;;;;;;1.00;0.00;;;;;16.67;94.81;51270.34;5016017;28;45374;-83
2022/12/23 10:25:11;;;;;;;;;0.00;0.00;;;;;16.61;95.54;53423.38;4991854;28;45766;-83
2022/12/23 10:27:38;;;;;;;;;0.00;0.00;;;;;16.73;95.10;55347.53;5011305;28;45546;-84
2022/12/23 10:30:11;;;;;;;;;0.00;0.00;;;;;16.42;94.96;54353.16;5013305;28;45659;-84
2022/12/23 10:33:00;;;;;;;;;0.00;0.00;;;;;16.73;95.22;55267.72;5012811;28;45787;-84
2022/12/23 10:35:44;;;;;;;;;0.33;0.00;;;;;16.75;95.34;55714.09;5011773;28;45793;-83
2022/12/23 10:38:34;;;;;;;;;0.00;0.00;;;;;16.75;96.02;57020.66;5010274;28;45466;-84
2022/12/23 10:41:23;;;;;;;;;0.00;0.00;;;;;16.73;95.58;56281.75;5020574;28;45782;-87
2022/12/23 10:44:15;;;;;;;;;0.00;0.00;;;;;16.44;95.75;56868.94;5010767;28;46022;-85
2022/12/23 10:47:06;;;;;;;;;0.00;0.00;;;;;16.78;95.62;56723.25;5010650;28;45435;-89
2022/12/23 10:50:05;;;;;;;;;0.00;0.00;;;;;16.81;95.62;55368.59;4991393;28;45545;-87
2022/12/23 10:52:36;;;;;;;;;1.00;0.00;;;;;16.56;94.88;54700.66;5007435;28;45610;-87
2022/12/23 10:55:02;;;;;;;;;0.00;0.00;;;;;16.64;95.42;55001.41;5004887;28;46065;-89
2022/12/23 10:57:28;;;;;;;;;0.00;0.00;;;;;16.37;95.28;54004.94;5010282;28;45553;-87
2022/12/23 10:59:55;;;;;;;;;0.00;0.00;;;;;16.94;95.06;52206.00;5015467;28;45584;-85
2022/12/23 11:02:30;;;;;;;;;0.00;0.00;;;;;16.94;94.37;50392.28;5014215;28;46490;-84
2022/12/23 11:04:55;;;;;;;;;0.00;0.00;;;;;16.60;94.23;49501.81;5011547;28;46093;-84
2022/12/23 11:07:27;;;;;;;;;0.00;0.00;;;;;17.02;94.01;48054.69;4998057;28;45482;-84
2022/12/23 11:10:06;;;;;;;;;0.00;0.00;;;;;16.65;93.85;47182.00;5014847;28;45561;-84
2022/12/23 11:13:01;;;;;;;;;0.00;0.00;;;;;17.05;93.54;45984.34;5015760;28;45332;-85
2022/12/23 11:15:29;;;;;;;;;0.00;0.00;;;;;17.07;93.78;45821.69;4993500;28;45616;-84
2022/12/23 11:18:01;;;;;;;;;0.00;0.00;;;;;17.12;93.90;46287.16;4996673;28;45691;-85
2022/12/23 11:20:27;;;;;;;;;0.00;0.00;;;;;16.93;93.64;44780.13;5012924;28;45462;-84
2022/12/23 11:23:00;;;;;;;;;0.00;0.00;;;;;17.06;93.32;43614.16;5014511;28;45430;-84
2022/12/23 11:25:26;;;;;;;;;0.00;0.00;;;;;17.16;93.24;41450.16;4993105;28;45470;-84
2022/12/23 11:28:13;;;;;;;;;0.00;0.00;;;;;17.17;92.62;40548.72;4994870;28;45453;-84
2022/12/23 11:30:44;;;;;;;;;0.00;0.00;;;;;17.19;92.67;38677.06;4996438;28;45455;-84
2022/12/23 11:33:39;;;;;;;;;0.00;0.00;;;;;17.26;91.63;32880.69;4986044;28;45505;-84
2022/12/23 11:36:11;;;;;;;;;0.00;0.00;;;;;17.28;91.67;33379.81;4995919;28;45376;-84
2022/12/23 11:38:48;;;;;;;;;0.00;0.00;;;;;17.31;91.70;31900.88;4996256;28;45433;-84
2022/12/23 11:41:19;;;;;;;;;0.00;0.00;;;;;16.94;91.24;29022.84;4995406;28;45506;-84
2022/12/23 11:43:56;;;;;;;;;0.00;0.00;;;;;17.18;91.38;29186.34;4993004;28;46537;-85
2022/12/23 11:46:28;;;;;;;;;0.00;0.00;;;;;17.42;90.85;25286.59;4994439;28;45521;-84
2022/12/23 11:49:24;;;;;;;;;0.00;0.00;;;;;17.45;90.00;21466.44;4991972;28;45799;-84
2022/12/23 11:52:00;;;;;;;;;0.00;0.00;;;;;17.50;90.67;22821.41;4977395;28;45610;-85
2022/12/23 11:54:27;;;;;;;;;0.00;0.00;;;;;17.55;90.18;17235.25;4992001;28;48360;-85
2022/12/23 11:56:53;;;;;;;;;0.00;0.00;;;;;17.68;88.89;12151.31;4991386;28;45862;-84
2022/12/23 11:59:27;;;;;;;;;0.00;0.00;;;;;17.76;88.42;6415.38;4994897;28;45821;-84
2022/12/23 12:01:55;;;;;;;;;0.00;0.00;;;;;17.60;88.42;2572.31;4994880;28;45613;-84
2022/12/23 12:04:23;;;;;;;;;0.00;0.00;;;;;17.62;87.59;1426.34;4992858;28;46128;-85
2022/12/23 12:06:50;;;;;;;;;0.00;0.00;;;;;17.96;87.19;-3294.22;4992803;28;45579;-84
2022/12/23 12:09:17;;;;;;;;;0.50;0.00;;;;;17.43;87.12;-3386.06;4993017;28;45486;-87
2022/12/23 12:11:50;;;;;;;;;0.00;0.00;;;;;18.04;87.05;-9557.22;4994124;28;46395;-86